Time;durP1;ratioP1;P1;durP2;ratioP2;P2;SDS_P1;SDS_P2;PMS_P1;PMS_P2;Temp;Humidity;BMP_temperature;BMP_pressure;BME280_temperature;BME280_humidity;BME280_pressure;Samples;Min_cycle;Max_cycle;Signal;HPM_P1;HPM_P2
2022/11/09 00:00:04;;;;;;;30.50;20.00;;;;;;;6.95;83.75;100123.41;101533;1294;110363;-76
2022/11/09 00:02:51;;;;;;;31.60;21.10;;;;;;;6.91;83.87;100124.35;101352;1295;139600;-76
2022/11/09 00:05:18;;;;;;;32.40;21.00;;;;;;;6.90;84.03;100118.34;101555;1297;96056;-76
2022/11/09 00:07:44;;;;;;;30.90;19.90;;;;;;;6.90;84.14;100123.86;101533;1297;107898;-76
2022/11/09 00:10:12;;;;;;;34.60;20.90;;;;;;;6.90;84.18;100122.65;101463;1289;139637;-77
2022/11/09 00:12:38;;;;;;;30.40;19.90;;;;;;;6.89;84.30;100116.11;101588;1285;110505;-76
2022/11/09 00:15:07;;;;;;;30.80;19.90;;;;;;;6.87;84.21;100116.31;100966;1288;139006;-76
2022/11/09 00:17:34;;;;;;;31.90;20.00;;;;;;;6.86;84.41;100119.46;100102;1291;97703;-75
2022/11/09 00:20:01;;;;;;;34.70;20.60;;;;;;;6.83;84.34;100120.54;100072;1288;107758;-76
2022/11/09 00:22:28;;;;;;;34.50;20.40;;;;;;;6.81;84.51;100120.73;100025;1283;97837;-76
2022/11/09 00:24:54;;;;;;;33.30;19.70;;;;;;;6.77;84.53;100115.63;100003;1288;111717;-77
2022/11/09 00:27:21;;;;;;;32.50;20.20;;;;;;;6.75;84.76;100116.71;99900;1299;139002;-77
2022/11/09 00:29:48;;;;;;;31.70;20.00;;;;;;;6.72;84.94;100113.32;100093;1278;97814;-75
2022/11/09 00:32:17;;;;;;;31.20;20.20;;;;;;;6.70;84.90;100106.79;99784;1289;140628;-76
2022/11/09 00:34:44;;;;;;;36.40;21.40;;;;;;;6.69;85.02;100105.44;100009;1296;97999;-76
2022/11/09 00:37:11;;;;;;;31.50;20.40;;;;;;;6.66;84.98;100106.01;100069;1295;111724;-76
2022/11/09 00:39:38;;;;;;;33.10;21.70;;;;;;;6.65;84.98;100109.81;99922;1295;138669;-76
2022/11/09 00:42:06;;;;;;;34.50;21.20;;;;;;;6.65;85.33;100114.48;100113;1295;97813;-75
2022/11/09 00:44:33;;;;;;;34.30;21.30;;;;;;;6.64;85.27;100110.00;99937;1288;139230;-76
2022/11/09 00:47:00;;;;;;;35.10;21.20;;;;;;;6.64;85.26;100108.96;99837;1295;97864;-77
2022/11/09 00:49:26;;;;;;;33.50;21.20;;;;;;;6.63;85.17;100105.16;99879;1291;110972;-76
2022/11/09 00:51:53;;;;;;;31.20;20.10;;;;;;;6.64;85.21;100110.87;100009;1294;138406;-76
2022/11/09 00:54:21;;;;;;;34.40;22.00;;;;;;;6.64;85.29;100111.20;99989;1295;98038;-76
2022/11/09 00:56:48;;;;;;;34.50;20.70;;;;;;;6.66;85.52;100108.25;99711;1292;138180;-76
2022/11/09 00:59:15;;;;;;;29.80;20.20;;;;;;;6.68;85.37;100109.95;99959;1289;97895;-76
2022/11/09 01:01:42;;;;;;;34.00;21.50;;;;;;;6.69;85.48;100104.92;99760;1288;111572;-76
2022/11/09 01:04:09;;;;;;;32.90;21.20;;;;;;;6.69;85.55;100105.25;99850;1294;138463;-76
2022/11/09 01:06:36;;;;;;;32.20;20.40;;;;;;;6.70;85.55;100106.27;100009;1292;99113;-76
2022/11/09 01:09:03;;;;;;;31.90;21.30;;;;;;;6.71;85.49;100105.75;99693;1293;138601;-75
2022/11/09 01:11:30;;;;;;;33.50;20.00;;;;;;;6.71;85.61;100097.96;99897;1295;97821;-76
2022/11/09 01:14:00;;;;;;;33.10;20.40;;;;;;;6.72;85.62;100098.64;100063;1294;111444;-76
2022/11/09 01:16:27;;;;;;;31.00;19.50;;;;;;;6.72;85.54;100103.13;100017;1294;107207;-75
2022/11/09 01:18:57;;;;;;;34.20;19.80;;;;;;;6.72;85.55;100104.16;101604;1289;96075;-76
2022/11/09 01:21:25;;;;;;;31.00;20.10;;;;;;;6.73;85.62;100105.52;101476;1295;140070;-76
2022/11/09 01:23:52;;;;;;;29.90;19.10;;;;;;;6.75;85.46;100101.52;101431;1295;96015;-76
2022/11/09 01:26:19;;;;;;;34.20;19.90;;;;;;;6.76;85.36;100104.60;101515;1295;139246;-76
2022/11/09 01:28:46;;;;;;;30.10;19.50;;;;;;;6.78;85.28;100097.98;101525;1295;107464;-77
2022/11/09 01:31:16;;;;;;;30.50;20.00;;;;;;;6.80;85.33;100099.50;101489;1295;96328;-76
2022/11/09 01:33:44;;;;;;;31.50;18.90;;;;;;;6.79;85.10;100097.79;100972;1289;138752;-76
2022/11/09 01:36:13;;;;;;;29.80;18.60;;;;;;;6.81;85.14;100103.11;99991;1292;97706;-76
2022/11/09 01:38:40;;;;;;;31.60;19.30;;;;;;;6.81;85.00;100098.78;99962;1288;138820;-76
2022/11/09 01:41:11;;;;;;;31.40;19.20;;;;;;;6.80;85.01;100091.89;99965;1288;107605;-76
2022/11/09 01:43:38;;;;;;;32.20;19.00;;;;;;;6.80;84.78;100095.52;99836;1288;97839;-76
2022/11/09 01:46:15;;;;;;;29.60;19.00;;;;;;;6.81;84.94;100094.30;101469;1295;138397;-76
2022/11/09 01:48:48;;;;;;;29.00;18.80;;;;;;;6.80;84.87;100090.35;101372;1296;96033;-76
2022/11/09 01:51:24;;;;;;;30.40;18.90;;;;;;;6.78;84.87;100090.90;99899;1288;140675;-75
2022/11/09 01:53:57;;;;;;;29.10;18.60;;;;;;;6.76;84.83;100085.58;99968;1297;105927;-75
2022/11/09 01:56:26;;;;;;;30.40;19.20;;;;;;;6.75;84.87;100086.99;99967;1302;139096;-75
2022/11/09 01:58:55;;;;;;;33.40;19.10;;;;;;;6.73;84.95;100080.46;99850;1297;106877;-75
2022/11/09 02:01:23;;;;;;;34.70;18.80;;;;;;;6.71;85.02;100075.48;99943;1297;97704;-76
2022/11/09 02:03:55;;;;;;;29.90;18.90;;;;;;;6.71;84.98;100071.54;99945;1288;138345;-76
2022/11/09 02:06:25;;;;;;;31.30;18.90;;;;;;;6.70;84.83;100072.06;99843;1297;107449;-76
2022/11/09 02:08:57;;;;;;;30.00;19.10;;;;;;;6.68;85.06;100073.30;99910;1288;138189;-75
2022/11/09 02:11:28;;;;;;;34.50;19.40;;;;;;;6.65;85.29;100074.91;100033;1296;106558;-75
2022/11/09 02:14:00;;;;;;;32.00;20.50;;;;;;;6.61;85.15;100076.36;100011;1288;97951;-74
2022/11/09 02:16:28;;;;;;;34.80;20.50;;;;;;;6.58;85.32;100074.86;99975;1292;111480;-74
2022/11/09 02:18:59;;;;;;;36.70;20.20;;;;;;;6.55;85.29;100075.09;99920;1298;105669;-75
2022/11/09 02:21:28;;;;;;;32.30;21.80;;;;;;;6.54;85.66;100071.33;100667;1299;138523;-75
2022/11/09 02:23:55;;;;;;;36.50;20.50;;;;;;;6.52;85.66;100072.05;101610;1294;106523;-75
2022/11/09 02:26:28;;;;;;;32.10;21.40;;;;;;;6.49;85.68;100068.14;101314;1287;139225;-75
2022/11/09 02:28:58;;;;;;;32.20;21.50;;;;;;;6.47;85.84;100067.48;101574;1295;110478;-75
2022/11/09 02:31:31;;;;;;;36.20;21.50;;;;;;;6.45;85.73;100064.56;101286;1292;108051;-75
2022/11/09 02:34:03;;;;;;;34.10;22.10;;;;;;;6.43;85.90;100061.31;101267;1284;139255;-74
2022/11/09 02:36:31;;;;;;;33.40;21.70;;;;;;;6.42;85.96;100059.42;101377;1292;106829;-75
2022/11/09 02:38:59;;;;;;;37.20;21.90;;;;;;;6.41;86.00;100059.29;101307;1295;138659;-75
2022/11/09 02:41:28;;;;;;;32.00;21.40;;;;;;;6.39;86.14;100059.66;101396;1299;110262;-75
2022/11/09 02:43:56;;;;;;;34.50;21.40;;;;;;;6.38;86.12;100056.42;101421;1292;107560;-75
2022/11/09 02:46:30;;;;;;;32.10;20.60;;;;;;;6.37;86.40;100056.08;101303;1291;138818;-75
2022/11/09 02:48:57;;;;;;;34.80;21.70;;;;;;;6.36;86.32;100054.89;100021;1293;107021;-74
2022/11/09 02:51:24;;;;;;;31.80;19.90;;;;;;;6.36;86.36;100059.56;99886;1290;138843;-74
2022/11/09 02:53:52;;;;;;;34.40;21.70;;;;;;;6.36;86.30;100056.79;100035;1289;112072;-74
2022/11/09 02:56:20;;;;;;;32.90;20.00;;;;;;;6.37;86.30;100054.19;99713;1297;139107;-74
2022/11/09 02:58:47;;;;;;;31.20;19.60;;;;;;;6.39;86.41;100057.77;99847;1292;97851;-75
2022/11/09 03:01:15;;;;;;;29.60;20.40;;;;;;;6.39;86.29;100062.08;100045;1290;107472;-74
2022/11/09 03:03:43;;;;;;;34.50;21.10;;;;;;;6.40;86.46;100058.80;99920;1295;138550;-74
2022/11/09 03:06:11;;;;;;;34.90;22.00;;;;;;;6.41;86.22;100062.92;100043;1296;110824;-75
2022/11/09 03:08:39;;;;;;;33.60;20.80;;;;;;;6.41;86.30;100062.58;100170;1288;138965;-74
2022/11/09 03:11:06;;;;;;;33.00;20.80;;;;;;;6.40;86.25;100061.55;100081;1298;97933;-75
2022/11/09 03:13:34;;;;;;;33.60;21.00;;;;;;;6.41;86.09;100061.54;99913;1291;107797;-75
2022/11/09 03:16:05;;;;;;;34.70;21.10;;;;;;;6.40;86.14;100062.24;99744;1292;138823;-75
2022/11/09 03:18:35;;;;;;;30.80;20.20;;;;;;;6.39;86.23;100063.30;99909;1289;110006;-74
2022/11/09 03:21:06;;;;;;;34.50;21.00;;;;;;;6.40;86.26;100067.09;99770;1292;139598;-75
2022/11/09 03:23:34;;;;;;;37.40;21.40;;;;;;;6.42;86.27;100071.20;99870;1285;97856;-75
2022/11/09 03:26:01;;;;;;;34.50;21.00;;;;;;;6.42;86.24;100066.01;99866;1281;119243;-75
2022/11/09 03:28:28;;;;;;;36.30;21.70;;;;;;;6.42;86.23;100068.41;99758;1292;97823;-74
2022/11/09 03:30:55;;;;;;;35.00;20.60;;;;;;;6.43;86.30;100065.81;100018;1294;110503;-76
2022/11/09 03:33:23;;;;;;;32.80;20.70;;;;;;;6.43;86.09;100068.40;99823;1294;138800;-76
2022/11/09 03:35:50;;;;;;;38.00;21.80;;;;;;;6.43;85.99;100066.50;99866;1288;98165;-76
2022/11/09 03:38:17;;;;;;;34.70;20.40;;;;;;;6.43;86.03;100066.51;99675;1288;138751;-75
2022/11/09 03:40:44;;;;;;;33.70;20.80;;;;;;;6.43;86.10;100067.02;99819;1292;98273;-75
2022/11/09 03:43:11;;;;;;;35.10;21.10;;;;;;;6.44;86.13;100068.89;100034;1289;110221;-75
2022/11/09 03:45:39;;;;;;;37.60;20.80;;;;;;;6.45;85.97;100066.47;100495;1291;138919;-75
2022/11/09 03:48:06;;;;;;;35.70;20.20;;;;;;;6.47;85.98;100061.97;101579;1289;95890;-75
2022/11/09 03:50:39;;;;;;;37.90;22.10;;;;;;;6.47;85.91;100063.85;101321;1292;138411;-75
2022/11/09 03:53:06;;;;;;;35.20;21.90;;;;;;;6.47;85.91;100061.27;101579;1287;96102;-75
2022/11/09 03:55:33;;;;;;;42.10;22.30;;;;;;;6.45;85.98;100060.23;101546;1296;110998;-76
2022/11/09 03:58:00;;;;;;;37.30;22.20;;;;;;;6.43;85.76;100052.86;100199;1282;139200;-75
2022/11/09 04:00:27;;;;;;;38.20;21.30;;;;;;;6.43;85.71;100055.27;101222;1295;96189;-75
2022/11/09 04:02:54;;;;;;;37.30;22.20;;;;;;;6.42;86.00;100049.09;101418;1296;141433;-75
2022/11/09 04:05:21;;;;;;;37.60;22.20;;;;;;;6.40;86.08;100045.49;100838;1286;97022;-75
2022/11/09 04:07:53;;;;;;;37.30;21.60;;;;;;;6.38;86.14;100042.60;100684;1281;110956;-75
2022/11/09 04:10:21;;;;;;;36.60;21.40;;;;;;;6.39;86.09;100046.90;101343;1296;140744;-75
2022/11/09 04:12:48;;;;;;;38.40;21.40;;;;;;;6.40;85.97;100049.48;101530;1295;97084;-76
2022/11/09 04:15:16;;;;;;;36.80;22.00;;;;;;;6.41;86.14;100042.70;101454;1288;138618;-76
2022/11/09 04:17:43;;;;;;;34.40;21.00;;;;;;;6.44;86.20;100043.50;101573;1289;96991;-76
2022/11/09 04:20:12;;;;;;;35.10;20.80;;;;;;;6.45;85.89;100040.91;101428;1288;138038;-75
2022/11/09 04:22:39;;;;;;;37.10;21.90;;;;;;;6.45;85.87;100047.11;101523;1297;107604;-75
2022/11/09 04:25:07;;;;;;;37.90;21.90;;;;;;;6.42;86.01;100042.69;101532;1284;96722;-75
2022/11/09 04:27:34;;;;;;;36.10;22.70;;;;;;;6.40;85.85;100043.23;100195;1286;138808;-76
2022/11/09 04:30:01;;;;;;;36.30;22.50;;;;;;;6.39;85.96;100043.96;99967;1289;98090;-75
2022/11/09 04:32:28;;;;;;;35.40;22.50;;;;;;;6.39;86.08;100042.41;99865;1289;138921;-74
2022/11/09 04:34:55;;;;;;;37.40;21.80;;;;;;;6.38;86.15;100042.42;99999;1294;106778;-74
2022/11/09 04:37:22;;;;;;;35.10;21.40;;;;;;;6.39;85.95;100046.38;100011;1289;98315;-74
2022/11/09 04:39:48;;;;;;;35.50;22.80;;;;;;;6.38;86.06;100047.26;100192;1289;138201;-74
2022/11/09 04:42:15;;;;;;;40.60;22.70;;;;;;;6.36;86.02;100048.15;99984;1296;98293;-74
2022/11/09 04:44:42;;;;;;;41.40;23.90;;;;;;;6.34;86.16;100043.20;101165;1281;138340;-75
2022/11/09 04:47:09;;;;;;;41.90;22.90;;;;;;;6.31;86.08;100044.80;101489;1296;108238;-75
2022/11/09 04:49:36;;;;;;;35.40;21.90;;;;;;;6.27;86.13;100044.87;101557;1288;96059;-74
2022/11/09 04:52:03;;;;;;;35.80;22.60;;;;;;;6.24;86.26;100044.23;101414;1282;138844;-75
2022/11/09 04:54:30;;;;;;;35.30;22.40;;;;;;;6.23;86.40;100047.52;101549;1296;95784;-74
2022/11/09 04:56:57;;;;;;;36.30;23.00;;;;;;;6.21;86.44;100044.28;101441;1295;141883;-74
2022/11/09 04:59:24;;;;;;;37.90;22.60;;;;;;;6.22;86.46;100044.78;101479;1296;107274;-74
2022/11/09 05:01:51;;;;;;;35.10;22.10;;;;;;;6.22;86.56;100041.84;100592;1288;97838;-74
2022/11/09 05:04:18;;;;;;;33.30;20.50;;;;;;;6.23;86.55;100042.35;99880;1288;138280;-74
2022/11/09 05:06:45;;;;;;;38.50;23.00;;;;;;;6.22;86.37;100046.67;99978;1286;97815;-74
2022/11/09 05:09:12;;;;;;;38.90;22.60;;;;;;;6.23;86.47;100042.35;99899;1295;137594;-74
2022/11/09 05:11:39;;;;;;;41.50;24.10;;;;;;;6.21;86.58;100039.11;100052;1296;108807;-74
2022/11/09 05:14:06;;;;;;;36.80;22.70;;;;;;;6.19;86.68;100038.45;99971;1295;137995;-73
2022/11/09 05:16:33;;;;;;;41.30;22.90;;;;;;;6.17;86.75;100039.52;100014;1296;107557;-74
2022/11/09 05:19:00;;;;;;;39.30;22.30;;;;;;;6.16;86.77;100038.69;100062;1289;97839;-74
2022/11/09 05:21:27;;;;;;;40.70;23.30;;;;;;;6.14;86.80;100039.23;99904;1299;138572;-74
2022/11/09 05:24:01;;;;;;;36.40;22.60;;;;;;;6.13;86.79;100042.73;99881;1289;107563;-74
2022/11/09 05:26:30;;;;;;;35.50;21.40;;;;;;;6.12;86.79;100037.56;99825;1288;140464;-73
2022/11/09 05:28:57;;;;;;;38.50;22.70;;;;;;;6.12;86.93;100040.31;99979;1283;108137;-74
2022/11/09 05:31:25;;;;;;;37.90;21.50;;;;;;;6.12;86.93;100034.95;100358;1288;97869;-74
2022/11/09 05:33:53;;;;;;;38.50;22.90;;;;;;;6.13;86.80;100039.09;99883;1295;138707;-72
2022/11/09 05:36:20;;;;;;;40.30;23.40;;;;;;;6.14;86.96;100041.84;100632;1297;108565;-74
2022/11/09 05:38:47;;;;;;;38.50;23.60;;;;;;;6.12;86.88;100042.39;101435;1289;138040;-72
2022/11/09 05:41:14;;;;;;;35.90;22.40;;;;;;;6.10;86.97;100046.90;101508;1289;107506;-75
2022/11/09 05:43:43;;;;;;;46.20;25.00;;;;;;;6.05;86.85;100045.76;101517;1285;95850;-73
2022/11/09 05:46:10;;;;;;;40.40;23.30;;;;;;;6.03;87.17;100052.52;101427;1296;138922;-74
2022/11/09 05:48:37;;;;;;;38.70;23.20;;;;;;;6.04;87.13;100050.45;101523;1288;110507;-74
2022/11/09 05:51:06;;;;;;;42.40;23.00;;;;;;;6.05;87.10;100050.59;101403;1295;138695;-72
2022/11/09 05:53:33;;;;;;;35.90;23.20;;;;;;;6.06;87.01;100053.16;101481;1296;107889;-72
2022/11/09 05:56:05;;;;;;;35.80;22.20;;;;;;;6.09;87.02;100042.95;100046;1294;97844;-72
2022/11/09 05:58:35;;;;;;;39.00;22.70;;;;;;;6.12;87.16;100043.09;100044;1289;112185;-73
2022/11/09 06:01:02;;;;;;;34.90;23.10;;;;;;;6.15;87.13;100038.71;99927;1288;107159;-75
2022/11/09 06:03:29;;;;;;;42.00;23.10;;;;;;;6.18;87.13;100045.54;99925;1282;137712;-72
2022/11/09 06:05:59;;;;;;;38.40;24.00;;;;;;;6.20;86.94;100045.86;99913;1283;106897;-72
2022/11/09 06:08:34;;;;;;;40.60;24.40;;;;;;;6.20;86.99;100047.58;99898;1288;138021;-74
2022/11/09 06:11:03;;;;;;;40.90;24.40;;;;;;;6.21;86.79;100048.42;99924;1289;110380;-72
2022/11/09 06:13:31;;;;;;;37.20;23.30;;;;;;;6.24;86.78;100046.65;99925;1289;107823;-68
2022/11/09 06:15:59;;;;;;;36.20;23.00;;;;;;;6.28;87.09;100051.58;99978;1294;138646;-75
2022/11/09 06:18:27;;;;;;;38.20;22.60;;;;;;;6.31;86.82;100052.41;99931;1288;107243;-74
2022/11/09 06:20:57;;;;;;;39.80;23.50;;;;;;;6.34;86.72;100050.27;99731;1292;138557;-75
2022/11/09 06:23:24;;;;;;;39.40;23.70;;;;;;;6.37;86.49;100049.00;99951;1295;111485;-72
2022/11/09 06:25:52;;;;;;;41.30;24.00;;;;;;;6.41;86.51;100050.65;99976;1289;107531;-75
2022/11/09 06:28:19;;;;;;;41.90;25.40;;;;;;;6.45;86.43;100052.65;99843;1294;137706;-77
2022/11/09 06:30:46;;;;;;;40.80;23.90;;;;;;;6.49;86.31;100061.56;99954;1291;108578;-75
2022/11/09 06:33:13;;;;;;;46.60;25.10;;;;;;;6.52;86.33;100066.36;99905;1288;138607;-76
2022/11/09 06:35:41;;;;;;;43.40;24.30;;;;;;;6.54;86.24;100064.58;99994;1289;110387;-75
2022/11/09 06:38:17;;;;;;;37.20;22.50;;;;;;;6.57;86.07;100068.67;99860;1281;140088;-75
2022/11/09 06:40:45;;;;;;;36.40;22.50;;;;;;;6.58;86.00;100061.05;99976;1288;98350;-75
2022/11/09 06:43:12;;;;;;;36.40;22.90;;;;;;;6.60;85.83;100062.05;100002;1290;107573;-76
2022/11/09 06:45:39;;;;;;;41.10;24.60;;;;;;;6.63;85.97;100064.22;99879;1294;138088;-75
2022/11/09 06:48:06;;;;;;;41.40;25.30;;;;;;;6.67;85.73;100062.45;100020;1295;110513;-79
2022/11/09 06:50:34;;;;;;;44.40;24.40;;;;;;;6.69;85.77;100058.09;99902;1295;138414;-75
2022/11/09 06:53:03;;;;;;;41.30;24.50;;;;;;;6.73;85.83;100052.14;100052;1291;98296;-76
2022/11/09 06:55:32;;;;;;;40.20;23.00;;;;;;;6.80;85.76;100047.14;99995;1288;107785;-75
2022/11/09 06:57:59;;;;;;;42.10;22.90;;;;;;;6.91;85.66;100046.57;99942;1294;138431;-75
2022/11/09 07:00:27;;;;;;;38.60;23.80;;;;;;;7.06;85.52;100042.98;100042;1289;111375;-75
2022/11/09 07:02:55;;;;;;;41.10;24.60;;;;;;;7.21;85.16;100042.48;99866;1295;137941;-77
2022/11/09 07:05:22;;;;;;;43.60;24.50;;;;;;;7.34;84.83;100037.19;100069;1289;97796;-73
2022/11/09 07:07:49;;;;;;;45.10;25.20;;;;;;;7.41;84.54;100035.31;99850;1291;106653;-72
2022/11/09 07:10:16;;;;;;;43.90;25.10;;;;;;;7.43;84.23;100036.48;99894;1281;137595;-74
2022/11/09 07:12:43;;;;;;;40.30;24.60;;;;;;;7.45;84.26;100036.41;99991;1289;111145;-74
2022/11/09 07:15:12;;;;;;;40.10;23.60;;;;;;;7.51;84.18;100040.61;99883;1291;139734;-75
2022/11/09 07:17:40;;;;;;;40.80;23.70;;;;;;;7.58;84.03;100042.02;101530;1279;96239;-75
2022/11/09 07:20:09;;;;;;;36.20;23.50;;;;;;;7.62;83.97;100038.46;101091;1294;139839;-73
2022/11/09 07:22:38;;;;;;;38.30;23.90;;;;;;;7.66;83.84;100039.02;100036;1289;97739;-72
2022/11/09 07:25:08;;;;;;;43.20;24.70;;;;;;;7.69;83.61;100041.90;100013;1282;111344;-73
2022/11/09 07:27:36;;;;;;;42.00;25.50;;;;;;;7.69;83.59;100041.38;99919;1288;137872;-73
2022/11/09 07:30:03;;;;;;;42.00;25.90;;;;;;;7.71;83.45;100044.64;100056;1289;97693;-73
2022/11/09 07:32:32;;;;;;;43.00;25.50;;;;;;;7.69;83.46;100044.50;99924;1289;138061;-74
2022/11/09 07:35:19;;;;;;;37.20;24.20;;;;;;;7.71;83.54;100046.36;100021;1281;97913;-76
2022/11/09 07:37:46;;;;;;;45.70;24.30;;;;;;;7.77;83.68;100046.59;100029;1292;111684;-75
2022/11/09 07:40:14;;;;;;;37.10;22.90;;;;;;;7.85;83.66;100052.08;99889;1282;139004;-77
2022/11/09 07:42:41;;;;;;;42.40;24.80;;;;;;;7.96;83.49;100053.39;101591;1288;96182;-75
2022/11/09 07:45:09;;;;;;;41.00;25.20;;;;;;;8.05;83.32;100052.98;101348;1288;137840;-76
2022/11/09 07:47:36;;;;;;;41.80;25.40;;;;;;;8.14;83.26;100048.09;101599;1289;95555;-77
2022/11/09 07:50:04;;;;;;;43.40;26.10;;;;;;;8.21;83.18;100046.16;101614;1288;110270;-76
2022/11/09 07:52:31;;;;;;;40.00;24.30;;;;;;;8.25;82.94;100045.02;101384;1284;107201;-75
2022/11/09 07:54:57;;;;;;;40.10;23.60;;;;;;;8.32;82.75;100043.84;101530;1288;97179;-74
2022/11/09 07:57:24;;;;;;;38.50;24.40;;;;;;;8.38;82.60;100049.05;101442;1288;138358;-75
2022/11/09 07:59:52;;;;;;;40.00;23.70;;;;;;;8.44;82.40;100044.73;101563;1285;95962;-75
2022/11/09 08:02:19;;;;;;;39.50;25.20;;;;;;;8.57;82.54;100052.88;101494;1280;138940;-77
2022/11/09 08:04:49;;;;;;;39.40;24.00;;;;;;;8.76;82.33;100048.02;101562;1296;107070;-77
2022/11/09 08:07:16;;;;;;;41.70;24.60;;;;;;;8.89;82.02;100041.58;100602;1288;98331;-77
2022/11/09 08:09:44;;;;;;;38.40;24.70;;;;;;;9.02;81.77;100040.70;99795;1282;138126;-76
2022/11/09 08:12:11;;;;;;;42.50;26.00;;;;;;;9.14;81.47;100039.65;99992;1281;97866;-77
2022/11/09 08:14:38;;;;;;;41.60;25.70;;;;;;;9.22;81.02;100038.91;100005;1295;137823;-77
2022/11/09 08:17:05;;;;;;;45.00;24.10;;;;;;;9.29;80.86;100039.70;100021;1282;108836;-78
2022/11/09 08:19:31;;;;;;;38.50;24.30;;;;;;;9.36;80.63;100036.38;100007;1294;99401;-78
2022/11/09 08:21:59;;;;;;;38.20;23.60;;;;;;;9.50;80.79;100036.45;99928;1292;138521;-77
2022/11/09 08:24:26;;;;;;;42.00;24.00;;;;;;;9.66;80.45;100033.70;100063;1289;97877;-77
2022/11/09 08:26:54;;;;;;;41.20;25.00;;;;;;;9.84;80.13;100034.88;99926;1283;137842;-76
2022/11/09 08:29:21;;;;;;;39.90;25.30;;;;;;;9.93;79.44;100034.73;100983;1291;107847;-77
2022/11/09 08:31:50;;;;;;;42.60;25.20;;;;;;;9.94;79.33;100031.57;100041;1288;98345;-77
2022/11/09 08:34:18;;;;;;;41.40;26.50;;;;;;;9.99;79.13;100031.05;99985;1282;137711;-74
2022/11/09 08:36:45;;;;;;;37.90;24.40;;;;;;;10.12;79.05;100029.23;99842;1285;97839;-77
2022/11/09 08:39:14;;;;;;;39.90;23.70;;;;;;;10.32;78.61;100032.59;99910;1288;139339;-78
2022/11/09 08:41:43;;;;;;;40.30;22.90;;;;;;;10.48;77.85;100030.98;99988;1289;106137;-80
2022/11/09 08:44:10;;;;;;;36.60;23.20;;;;;;;10.68;77.68;100028.18;99883;1288;139246;-77
2022/11/09 08:46:37;;;;;;;38.70;24.40;;;;;;;10.95;77.24;100021.80;100059;1289;107679;-81
2022/11/09 08:49:07;;;;;;;35.90;23.60;;;;;;;11.23;76.60;100019.17;100083;1293;97955;-81
2022/11/09 08:51:34;;;;;;;40.00;24.40;;;;;;;11.42;76.04;100024.52;99980;1288;139912;-79
2022/11/09 08:54:01;;;;;;;39.90;24.10;;;;;;;11.56;75.36;100024.67;100011;1282;107965;-76
2022/11/09 08:56:28;;;;;;;41.60;25.40;;;;;;;11.60;74.63;100021.56;99869;1288;139446;-78
2022/11/09 08:58:55;;;;;;;41.40;24.10;;;;;;;11.53;74.24;100024.27;100076;1289;106887;-79
2022/11/09 09:01:24;;;;;;;43.30;26.00;;;;;;;11.40;74.03;100019.02;99879;1282;97824;-80
2022/11/09 09:03:51;;;;;;;39.60;24.00;;;;;;;11.29;73.90;100018.06;99858;1284;139070;-75
2022/11/09 09:06:18;;;;;;;43.20;23.90;;;;;;;11.33;74.85;100017.73;100016;1289;107872;-75
2022/11/09 09:08:45;;;;;;;39.20;23.50;;;;;;;11.44;74.98;100013.30;99894;1281;138846;-76
2022/11/09 09:11:13;;;;;;;35.80;23.90;;;;;;;11.63;74.93;100015.17;100033;1289;107128;-78
2022/11/09 09:13:39;;;;;;;34.20;23.60;;;;;;;11.87;74.54;100024.99;100018;1279;97801;-74
2022/11/09 09:16:15;;;;;;;38.40;23.30;;;;;;;12.10;73.78;100029.45;99967;1289;138219;-75
2022/11/09 09:18:42;;;;;;;36.40;23.70;;;;;;;12.30;73.27;100031.22;99914;1281;107148;-77
2022/11/09 09:21:12;;;;;;;36.20;23.90;;;;;;;12.55;73.28;100031.57;99911;1286;138094;-80
2022/11/09 09:23:39;;;;;;;39.60;24.30;;;;;;;12.67;72.74;100026.63;100018;1282;107469;-77
2022/11/09 09:26:06;;;;;;;34.60;23.10;;;;;;;12.72;71.99;100032.52;100045;1291;97934;-78
2022/11/09 09:28:33;;;;;;;36.60;23.30;;;;;;;12.61;71.62;100027.97;100019;1275;112356;-78
2022/11/09 09:31:01;;;;;;;36.40;24.70;;;;;;;12.62;72.15;100027.20;100070;1289;107561;-77
2022/11/09 09:33:28;;;;;;;37.00;24.10;;;;;;;12.79;72.11;100019.52;99955;1288;138179;-76
2022/11/09 09:35:58;;;;;;;37.90;23.50;;;;;;;12.91;71.13;100024.19;99999;1282;107698;-76
2022/11/09 09:38:26;;;;;;;37.20;23.00;;;;;;;13.03;70.99;100029.04;99912;1289;138130;-76
2022/11/09 09:40:58;;;;;;;33.60;22.70;;;;;;;13.04;70.36;100033.36;100007;1280;110240;-75
2022/11/09 09:43:30;;;;;;;34.80;23.30;;;;;;;13.16;70.59;100033.86;99975;1286;107268;-76
2022/11/09 09:46:00;;;;;;;32.60;21.20;;;;;;;13.28;70.01;100031.59;99888;1286;139534;-75
2022/11/09 09:48:35;;;;;;;35.30;23.50;;;;;;;13.29;69.49;100025.61;99997;1282;106006;-74
2022/11/09 09:51:09;;;;;;;37.50;24.20;;;;;;;13.20;69.43;100023.41;101302;1292;138021;-74
2022/11/09 09:53:43;;;;;;;35.00;23.70;;;;;;;13.03;69.01;100031.49;101167;1295;110937;-75
2022/11/09 09:56:16;;;;;;;34.30;23.70;;;;;;;12.84;69.43;100027.31;99895;1285;140615;-76
2022/11/09 09:58:49;;;;;;;37.60;24.00;;;;;;;12.69;70.07;100025.67;100098;1288;97820;-75
2022/11/09 10:01:18;;;;;;;35.30;22.80;;;;;;;12.62;70.25;100033.52;100008;1289;107521;-74
2022/11/09 10:03:45;;;;;;;33.30;23.40;;;;;;;12.57;70.41;100030.59;99813;1289;140374;-77
2022/11/09 10:06:30;;;;;;;35.10;22.30;;;;;;;12.53;70.09;100033.17;100109;1295;111133;-75
2022/11/09 10:09:06;;;;;;;36.10;24.80;;;;;;;12.48;70.37;100029.76;99886;1281;138344;-73
2022/11/09 10:11:43;;;;;;;38.80;24.10;;;;;;;12.39;70.54;100028.56;100068;1281;97842;-71
2022/11/09 10:14:30;;;;;;;37.50;23.60;;;;;;;12.35;70.78;100029.80;99936;1289;138076;-73
2022/11/09 10:17:07;;;;;;;38.20;24.00;;;;;;;12.23;70.85;100027.36;99999;1280;97840;-73
2022/11/09 10:19:48;;;;;;;38.40;24.90;;;;;;;12.17;70.85;100030.39;100002;1296;111273;-72
2022/11/09 10:22:22;;;;;;;38.30;24.90;;;;;;;12.07;70.99;100025.73;99895;1294;138216;-76
2022/11/09 10:24:57;;;;;;;38.70;24.30;;;;;;;11.99;71.12;100023.47;99996;1291;97842;-75
2022/11/09 10:27:51;;;;;;;39.00;23.70;;;;;;;11.87;71.14;100023.27;99973;1291;137763;-75
2022/11/09 10:30:21;;;;;;;40.40;24.00;;;;;;;11.83;71.49;100018.75;99975;1289;97837;-73
2022/11/09 10:32:51;;;;;;;36.80;22.70;;;;;;;11.79;71.63;100025.30;101455;1291;139795;-74
2022/11/09 10:35:21;;;;;;;34.90;23.60;;;;;;;11.75;71.58;100018.52;101561;1296;107787;-72
2022/11/09 10:37:51;;;;;;;38.50;24.60;;;;;;;11.75;71.90;100015.21;101580;1289;95924;-73
2022/11/09 10:40:23;;;;;;;38.20;24.90;;;;;;;11.81;72.06;100011.51;101489;1289;138606;-74
2022/11/09 10:43:12;;;;;;;37.30;23.80;;;;;;;11.92;71.98;100016.10;101585;1296;95688;-73
2022/11/09 10:46:04;;;;;;;39.10;24.60;;;;;;;11.98;71.74;100014.25;100703;1281;137854;-72
2022/11/09 10:48:50;;;;;;;38.00;24.00;;;;;;;12.06;71.68;100015.86;99990;1288;107630;-74
2022/11/09 10:51:45;;;;;;;39.90;24.60;;;;;;;12.08;71.47;100014.55;99867;1288;137935;-73
2022/11/09 10:54:33;;;;;;;36.40;24.30;;;;;;;12.10;71.51;100015.67;100080;1288;107467;-74
2022/11/09 10:57:21;;;;;;;36.80;23.30;;;;;;;12.10;71.51;100012.90;99948;1289;138277;-71
2022/11/09 11:00:13;;;;;;;;;;;;;;;12.13;71.42;100006.02;100066;1281;111996;-71
2022/11/09 11:03:09;;;;;;;38.40;22.70;;;;;;;12.16;71.45;100008.29;100402;1295;125304;-73
2022/11/09 11:06:00;;;;;;;35.90;23.90;;;;;;;12.25;71.58;100008.44;100080;1295;97766;-73
2022/11/09 11:08:47;;;;;;;35.30;23.20;;;;;;;12.31;71.24;100009.03;101373;1289;138855;-72
2022/11/09 11:11:34;;;;;;;37.60;23.80;;;;;;;12.36;71.37;100005.34;101563;1288;95696;-73
2022/11/09 11:14:29;;;;;;;38.40;24.30;;;;;;;12.45;71.49;100005.11;101442;1296;138528;-77